createdAt,value
2023-04-28T00:16:28.054Z,46.05
2023-04-28T00:33:06.507Z,47.15
2023-04-28T00:59:57.113Z,48.13
2023-04-28T01:09:52.179Z,49.48
2023-04-28T01:40:31.493Z,53.40
2023-04-28T01:43:29.066Z,53.17
2023-04-28T02:00:31.802Z,55.23
2023-04-28T02:03:15.022Z,55.38
2023-04-28T02:09:38.771Z,55.91
2023-04-28T02:15:58.992Z,56.32
2023-04-28T02:21:47.957Z,56.82
2023-04-28T02:24:35.519Z,56.78
2023-04-28T02:27:18.500Z,56.39
2023-04-28T02:30:19.894Z,57.10
2023-04-28T02:40:18.280Z,56.96
2023-04-28T02:43:31.402Z,57.39
2023-04-28T02:46:19.957Z,57.37
2023-04-28T03:09:14.310Z,58.44
2023-04-28T03:12:14.863Z,59.00
2023-04-28T03:15:09.228Z,59.15
2023-04-28T03:17:38.816Z,59.58
2023-04-28T03:20:33.964Z,59.90
2023-04-28T03:26:06.191Z,60.40
2023-04-28T03:28:45.669Z,60.24
2023-04-28T03:31:56.989Z,59.93
2023-04-28T03:39:17.694Z,60.36
2023-04-28T03:45:57.686Z,60.36
2023-04-28T03:48:32.466Z,60.30
2023-04-28T03:51:34.887Z,59.98
2023-04-28T04:31:19.907Z,62.38
2023-04-28T04:47:11.291Z,62.10
2023-04-28T04:49:53.236Z,62.16
2023-04-28T04:55:41.332Z,61.70
2023-04-28T04:58:44.841Z,61.47
2023-04-28T05:01:15.316Z,61.55
2023-04-28T05:06:53.256Z,60.95
2023-04-28T05:16:38.590Z,60.42
2023-04-28T05:22:22.522Z,59.83
2023-04-28T05:25:05.621Z,59.72
2023-04-28T05:31:45.065Z,59.23
2023-04-28T05:34:21.487Z,59.13
2023-04-28T05:37:15.250Z,59.03
2023-04-28T05:40:10.510Z,59.13
2023-04-28T05:42:41.828Z,59.24
2023-04-28T05:45:30.354Z,59.28
2023-04-28T05:51:34.667Z,59.33
2023-04-28T05:58:06.951Z,59.17
2023-04-28T06:00:34.175Z,59.83
2023-04-28T06:03:18.674Z,59.01
2023-04-28T06:05:56.333Z,58.81
2023-04-28T06:08:43.104Z,58.93
2023-04-28T06:11:39.477Z,58.02
2023-04-28T06:14:43.520Z,57.05
2023-04-28T06:26:59.872Z,52.63
2023-04-28T06:29:34.278Z,52.29
2023-04-28T06:35:34.924Z,53.54
2023-04-28T06:38:58.216Z,52.65
2023-04-28T06:42:16.893Z,50.78
2023-04-28T06:48:11.253Z,49.80
2023-04-28T06:50:48.772Z,50.75
2023-04-28T07:06:08.233Z,51.32
2023-04-28T07:09:23.902Z,52.21
2023-04-28T07:22:07.675Z,52.20
2023-04-28T07:25:42.223Z,52.25
2023-04-28T07:29:01.226Z,52.41
2023-04-28T07:35:31.610Z,51.87
2023-04-28T07:38:56.988Z,51.18
2023-04-28T07:41:36.598Z,50.92
2023-04-28T07:44:39.312Z,50.62
2023-04-28T07:47:16.946Z,50.73
2023-04-28T07:50:11.367Z,51.93
2023-04-28T07:52:42.883Z,53.63
2023-04-28T07:58:22.999Z,52.38
2023-04-28T08:01:38.166Z,51.29
2023-04-28T08:14:31.946Z,51.81
2023-04-28T08:17:02.592Z,50.81
2023-04-28T08:22:51.570Z,51.96
2023-04-28T08:26:05.073Z,52.10
2023-04-28T08:29:07.383Z,51.29
2023-04-28T08:31:36.488Z,52.03
2023-04-28T08:34:31.079Z,52.57
2023-04-28T08:40:06.748Z,53.80
2023-04-28T08:46:08.195Z,50.46
2023-04-28T08:49:20.388Z,49.16
2023-04-28T08:52:12.266Z,48.27
2023-04-28T08:54:59.356Z,47.82
2023-04-28T08:57:28.798Z,47.32
2023-04-28T08:59:57.114Z,48.43
2023-04-28T09:02:23.812Z,48.05
2023-04-28T09:04:52.183Z,47.89
2023-04-28T09:07:19.031Z,48.07
2023-04-28T09:09:45.695Z,48.96
2023-04-28T09:12:12.305Z,49.72
2023-04-28T09:14:39.413Z,50.93
2023-04-28T09:17:11.247Z,52.23
2023-04-28T09:19:38.801Z,52.26
2023-04-28T09:22:17.540Z,52.78
2023-04-28T09:24:44.629Z,52.82
2023-04-28T09:27:11.452Z,52.15
2023-04-28T09:29:38.907Z,52.48
2023-04-28T09:32:13.745Z,53.65
2023-04-28T09:34:44.263Z,52.78
2023-04-28T09:37:16.483Z,51.48
2023-04-28T09:39:44.669Z,50.87
2023-04-28T09:42:11.247Z,50.82
2023-04-28T09:44:37.838Z,50.67
2023-04-28T09:47:19.919Z,50.32
2023-04-28T09:49:53.999Z,51.09
2023-04-28T09:52:22.163Z,51.29
2023-04-28T09:54:50.694Z,51.52
2023-04-28T09:57:17.548Z,51.46
2023-04-28T09:59:47.637Z,51.19
2023-04-28T10:02:41.123Z,52.44
2023-04-28T10:05:02.924Z,53.01
2023-04-28T10:07:32.599Z,53.37
2023-04-28T10:10:00.781Z,53.43
2023-04-28T10:12:27.919Z,53.31
2023-04-28T10:14:54.500Z,53.71
2023-04-28T10:17:22.012Z,53.71
2023-04-28T10:19:50.305Z,55.00
2023-04-28T10:22:42.276Z,56.20
2023-04-28T10:25:27.668Z,56.37
2023-04-28T10:27:54.557Z,55.73
2023-04-28T10:30:28.223Z,55.34
2023-04-28T10:33:24.464Z,55.03
2023-04-28T10:35:51.613Z,55.13
2023-04-28T10:38:20.356Z,55.85
2023-04-28T10:41:26.117Z,55.15
2023-04-28T10:43:52.686Z,55.40
2023-04-28T10:46:19.291Z,55.88
2023-04-28T10:49:06.855Z,55.71
2023-04-28T10:51:34.455Z,56.94
2023-04-28T10:54:18.633Z,56.54
2023-04-28T10:57:15.092Z,56.17
2023-04-28T10:59:41.774Z,56.51
2023-04-28T11:02:48.244Z,56.59
2023-04-28T11:05:19.233Z,57.08
2023-04-28T11:08:28.560Z,56.86
2023-04-28T11:11:15.932Z,57.13
2023-04-28T11:13:42.863Z,57.59
2023-04-28T11:16:09.467Z,58.92
2023-04-28T11:18:49.515Z,59.54
2023-04-28T11:21:16.119Z,59.16
2023-04-28T11:23:43.381Z,59.31
2023-04-28T11:26:10.285Z,59.71
2023-04-28T11:28:47.309Z,57.99
2023-04-28T11:31:14.702Z,58.54
2023-04-28T11:33:43.172Z,57.65
2023-04-28T11:36:22.550Z,58.94
2023-04-28T11:38:49.128Z,58.30
2023-04-28T11:41:16.026Z,56.96
2023-04-28T11:43:47.445Z,56.24
2023-04-28T11:46:18.587Z,56.10
2023-04-28T11:48:49.972Z,55.50
2023-04-28T11:51:30.664Z,53.38
2023-04-28T11:53:57.265Z,53.49
2023-04-28T11:56:23.816Z,53.40
2023-04-28T11:59:03.877Z,52.15
2023-04-28T12:01:31.848Z,51.46
2023-04-28T12:03:58.629Z,51.82
2023-04-28T12:06:25.405Z,52.74
2023-04-28T12:08:52.003Z,51.99
2023-04-28T12:11:20.166Z,51.28
2023-04-28T12:14:07.303Z,51.39
2023-04-28T12:16:41.086Z,51.72
2023-04-28T12:19:07.678Z,52.09
2023-04-28T12:21:35.817Z,51.92
2023-04-28T12:24:16.698Z,51.49
2023-04-28T12:26:43.368Z,50.56
2023-04-28T12:29:38.185Z,48.96
2023-04-28T12:32:06.403Z,48.56
2023-04-28T12:34:33.124Z,47.92
2023-04-28T12:37:00.233Z,46.77
2023-04-28T12:39:27.180Z,45.43
2023-04-28T12:41:53.814Z,44.63
2023-04-28T12:44:21.965Z,45.00
2023-04-28T12:46:48.804Z,45.47
2023-04-28T12:49:15.379Z,45.10
2023-04-28T12:51:42.035Z,44.81
2023-04-28T12:54:08.636Z,45.20
2023-04-28T12:56:35.255Z,45.45
2023-04-28T12:59:04.636Z,45.30
2023-04-28T13:01:32.538Z,45.88
2023-04-28T13:03:59.259Z,45.90
2023-04-28T13:06:27.474Z,45.64
2023-04-28T13:08:54.051Z,45.67
2023-04-28T13:11:23.117Z,44.81
2023-04-28T13:13:49.741Z,44.59
2023-04-28T13:16:16.458Z,44.44
2023-04-28T13:18:44.569Z,44.79
2023-04-28T13:21:11.149Z,45.53
2023-04-28T13:23:37.708Z,46.45
2023-04-28T13:26:04.536Z,45.95
2023-04-28T13:28:31.107Z,46.63
2023-04-28T13:30:57.677Z,45.98
2023-04-28T13:33:24.296Z,48.46
2023-04-28T13:35:52.240Z,48.04
2023-04-28T13:38:18.813Z,48.16
2023-04-28T13:40:45.363Z,47.43
2023-04-28T13:43:11.969Z,46.20
2023-04-28T13:45:38.665Z,45.13
2023-04-28T13:48:05.676Z,45.82
2023-04-28T13:50:32.265Z,46.37
2023-04-28T13:53:01.779Z,44.94
2023-04-28T13:55:29.055Z,44.48
2023-04-28T13:57:55.909Z,44.75
2023-04-28T14:00:23.110Z,44.48
2023-04-28T14:02:50.068Z,44.07
2023-04-28T14:05:16.949Z,44.76
2023-04-28T14:07:44.020Z,43.77
2023-04-28T14:10:12.129Z,43.94
2023-04-28T14:12:38.788Z,43.42
2023-04-28T14:15:06.696Z,43.41
2023-04-28T14:17:33.909Z,43.63
2023-04-28T14:20:00.932Z,42.85
2023-04-28T14:22:27.561Z,42.38
2023-04-28T14:24:54.141Z,44.09
2023-04-28T14:27:22.175Z,43.65
2023-04-28T14:29:48.836Z,43.61
2023-04-28T14:32:18.521Z,43.54
2023-04-28T14:34:45.356Z,43.56
2023-04-28T14:37:12.410Z,43.15
2023-04-28T14:39:39.046Z,43.75
2023-04-28T14:42:05.646Z,42.49
2023-04-28T14:44:34.586Z,42.06
2023-04-28T14:47:01.664Z,42.60
2023-04-28T14:49:28.424Z,42.73
2023-04-28T14:51:55.125Z,42.51
2023-04-28T14:54:21.808Z,43.23
2023-04-28T14:56:48.654Z,43.19
2023-04-28T14:59:15.218Z,44.59
2023-04-28T15:01:43.310Z,44.51
2023-04-28T15:04:10.191Z,44.12
2023-04-28T15:06:36.825Z,44.69
2023-04-28T15:09:03.667Z,44.52
2023-04-28T15:11:31.244Z,45.07
2023-04-28T15:13:57.863Z,44.91
2023-04-28T15:16:24.507Z,45.33
2023-04-28T15:18:52.423Z,47.81
2023-04-28T15:21:18.978Z,49.47
2023-04-28T15:23:53.602Z,49.63
2023-04-28T15:26:20.118Z,49.77
2023-04-28T15:28:46.718Z,49.96
2023-04-28T15:31:13.218Z,50.75
2023-04-28T15:33:39.769Z,50.60
2023-04-28T15:36:07.862Z,50.09
2023-04-28T15:38:34.416Z,52.32
2023-04-28T15:41:00.980Z,53.53
2023-04-28T15:43:27.525Z,53.71
2023-04-28T15:45:54.097Z,53.85
2023-04-28T15:48:20.698Z,53.48
2023-04-28T15:50:47.245Z,53.69
2023-04-28T15:53:15.152Z,52.95
2023-04-28T15:55:41.805Z,53.34
2023-04-28T15:58:08.357Z,53.94
2023-04-28T16:00:34.904Z,53.03
2023-04-28T16:03:01.629Z,54.17
2023-04-28T16:05:28.251Z,53.65
2023-04-28T16:07:54.830Z,53.15
2023-04-28T16:10:22.743Z,51.66
2023-04-28T16:12:49.260Z,50.93
2023-04-28T16:15:16.022Z,50.20
2023-04-28T16:17:42.734Z,50.58
2023-04-28T16:20:10.565Z,50.65
2023-04-28T16:22:40.299Z,50.30
2023-04-28T16:25:07.956Z,49.94
2023-04-28T16:27:36.900Z,50.08
2023-04-28T16:30:04.616Z,50.20
2023-04-28T16:32:31.224Z,50.29
2023-04-28T16:34:58.147Z,50.90
2023-04-28T16:37:24.776Z,50.30
2023-04-28T16:39:51.538Z,50.55
2023-04-28T16:42:18.320Z,50.45
2023-04-28T16:44:46.252Z,51.30
2023-04-28T16:47:12.803Z,50.94
2023-04-28T16:49:39.341Z,50.53
2023-04-28T16:52:05.842Z,50.18
2023-04-28T16:54:33.014Z,50.04
2023-04-28T16:57:01.134Z,50.01
2023-04-28T16:59:28.053Z,50.33
2023-04-28T17:01:56.272Z,51.52
2023-04-28T17:04:23.021Z,52.07
2023-04-28T17:06:49.788Z,52.47
2023-04-28T17:09:17.431Z,53.41
2023-04-28T17:11:44.001Z,53.45
2023-04-28T17:14:10.748Z,53.98
2023-04-28T17:16:38.113Z,54.15
2023-04-28T17:19:06.207Z,53.44
2023-04-28T17:21:33.461Z,53.67
2023-04-28T17:24:00.574Z,53.51
2023-04-28T17:26:28.689Z,53.71
2023-04-28T17:28:55.932Z,54.32
2023-04-28T17:31:22.821Z,54.57
2023-04-28T17:33:50.389Z,55.08
2023-04-28T17:36:18.465Z,54.90
2023-04-28T17:38:45.185Z,55.27
2023-04-28T17:41:11.944Z,55.25
2023-04-28T17:43:38.621Z,55.98
2023-04-28T17:46:05.464Z,56.33
2023-04-28T17:48:32.126Z,55.90
2023-04-28T17:50:58.664Z,56.02
2023-04-28T17:53:26.673Z,56.61
2023-04-28T17:55:53.240Z,56.67
2023-04-28T17:58:20.323Z,57.33
2023-04-28T18:00:46.857Z,58.09
2023-04-28T18:03:13.478Z,57.35
2023-04-28T18:05:40.049Z,57.15
2023-04-28T18:08:06.820Z,57.45
2023-04-28T18:10:34.739Z,57.90
2023-04-28T18:13:01.413Z,58.54
2023-04-28T18:15:28.217Z,58.72
2023-04-28T18:17:54.843Z,59.53
2023-04-28T18:20:21.607Z,59.60
2023-04-28T18:22:48.318Z,60.08
2023-04-28T18:25:14.934Z,60.23
2023-04-28T18:27:43.072Z,59.65
2023-04-28T18:30:10.450Z,59.91
2023-04-28T18:32:37.091Z,60.82
2023-04-28T18:35:03.946Z,60.94
2023-04-28T18:37:30.540Z,60.17
2023-04-28T18:39:57.260Z,60.23
2023-04-28T18:42:24.272Z,60.35
2023-04-28T18:44:54.196Z,60.00
2023-04-28T18:47:20.865Z,59.92
2023-04-28T18:49:47.596Z,60.17
2023-04-28T18:52:14.224Z,60.10
2023-04-28T18:54:40.840Z,60.81
2023-04-28T18:57:07.434Z,60.50
2023-04-28T18:59:34.114Z,60.60
2023-04-28T19:02:03.070Z,60.81
2023-04-28T19:04:29.739Z,61.72
2023-04-28T19:06:56.542Z,61.88
2023-04-28T19:09:23.128Z,62.14
2023-04-28T19:11:49.747Z,62.68
2023-04-28T19:14:16.320Z,62.17
2023-04-28T19:16:43.124Z,62.29
2023-04-28T19:19:11.117Z,62.06
2023-04-28T19:21:43.802Z,61.52
2023-04-28T19:24:10.554Z,61.70
2023-04-28T19:26:37.096Z,61.37
2023-04-28T19:29:03.692Z,61.81
2023-04-28T19:31:30.319Z,61.55
2023-04-28T19:33:57.512Z,61.49
2023-04-28T19:36:25.501Z,61.69
2023-04-28T19:38:52.185Z,61.55
2023-04-28T19:41:18.737Z,61.20
2023-04-28T19:43:45.290Z,61.53
2023-04-28T19:46:11.909Z,62.05
2023-04-28T19:48:38.508Z,61.82
2023-04-28T19:51:05.128Z,61.68
2023-04-28T19:53:33.073Z,61.75
2023-04-28T19:55:59.684Z,61.93
2023-04-28T19:58:26.245Z,61.31
2023-04-28T20:00:52.808Z,61.30
2023-04-28T20:03:19.538Z,61.55
2023-04-28T20:05:46.235Z,61.37
2023-04-28T20:08:12.871Z,61.37
2023-04-28T20:10:41.056Z,61.13
2023-04-28T20:13:07.634Z,61.06
2023-04-28T20:15:34.372Z,60.71
2023-04-28T20:18:00.987Z,60.64
2023-04-28T20:20:27.537Z,60.72
2023-04-28T20:22:54.093Z,63.10
2023-04-28T20:25:20.694Z,63.78
2023-04-28T20:27:48.760Z,64.35
2023-04-28T20:30:15.418Z,64.30
2023-04-28T20:32:42.028Z,64.68
2023-04-28T20:35:09.275Z,64.58
2023-04-28T20:37:35.847Z,64.85
2023-04-28T20:40:02.611Z,65.14
2023-04-28T20:42:29.534Z,64.77
2023-04-28T20:44:57.520Z,64.94
2023-04-28T20:47:24.289Z,65.12
2023-04-28T20:49:51.134Z,65.02
2023-04-28T20:52:17.954Z,65.67
2023-04-28T20:54:44.608Z,65.84
2023-04-28T20:57:11.209Z,65.65
2023-04-28T20:59:37.855Z,65.29
2023-04-28T21:02:06.660Z,65.89
2023-04-28T21:04:33.255Z,66.24
2023-04-28T21:06:59.878Z,66.19
2023-04-28T21:09:26.510Z,66.01
2023-04-28T21:11:53.778Z,67.14
2023-04-28T21:14:20.442Z,66.65
2023-04-28T21:16:47.070Z,67.38
2023-04-28T21:19:15.014Z,68.33
2023-04-28T21:21:41.580Z,69.32
2023-04-28T21:24:08.238Z,68.90
2023-04-28T21:26:34.877Z,69.30
2023-04-28T21:29:01.457Z,69.87
2023-04-28T21:31:28.116Z,69.54
2023-04-28T21:33:54.730Z,69.86
2023-04-28T21:36:22.679Z,69.46
2023-04-28T21:38:49.525Z,69.81
2023-04-28T21:41:16.196Z,70.25
2023-04-28T21:43:42.742Z,70.58
2023-04-28T21:46:09.377Z,70.39
2023-04-28T21:48:36.066Z,70.04
2023-04-28T21:51:02.663Z,70.11
2023-04-28T21:53:30.566Z,70.13
2023-04-28T21:55:57.380Z,70.04
2023-04-28T21:58:23.935Z,70.04
2023-04-28T22:00:50.755Z,70.06
2023-04-28T22:03:17.687Z,70.04
2023-04-28T22:05:45.028Z,70.46
2023-04-28T22:08:12.124Z,70.08
2023-04-28T22:10:40.164Z,69.53
2023-04-28T22:13:06.846Z,69.79
2023-04-28T22:15:33.806Z,69.92
2023-04-28T22:18:00.571Z,70.25
2023-04-28T22:20:27.210Z,70.86
2023-04-28T22:22:53.978Z,71.15
2023-04-28T22:25:20.588Z,71.26
2023-04-28T22:27:48.724Z,70.83
2023-04-28T22:30:15.787Z,71.21
2023-04-28T22:32:42.448Z,71.08
2023-04-28T22:35:09.762Z,70.45
2023-04-28T22:37:36.391Z,70.60
2023-04-28T22:40:03.056Z,71.42
2023-04-28T22:42:29.809Z,70.81
2023-04-28T22:44:57.711Z,70.65
2023-04-28T22:47:24.373Z,70.63
2023-04-28T22:49:51.162Z,70.52
2023-04-28T22:52:17.903Z,71.37
2023-04-28T22:54:44.479Z,72.19
2023-04-28T22:57:11.056Z,71.60
2023-04-28T22:59:38.095Z,71.27
2023-04-28T23:02:06.080Z,71.47
2023-04-28T23:04:32.898Z,70.73
2023-04-28T23:06:59.554Z,70.51
2023-04-28T23:09:26.167Z,70.71
2023-04-28T23:11:52.683Z,70.33
2023-04-28T23:14:19.275Z,70.67
2023-04-28T23:16:45.810Z,71.38
2023-04-28T23:19:13.758Z,71.75
2023-04-28T23:21:40.333Z,70.51
2023-04-28T23:24:06.941Z,70.27
2023-04-28T23:26:33.511Z,69.97
2023-04-28T23:29:00.057Z,69.72
2023-04-28T23:31:26.720Z,69.38
2023-04-28T23:33:53.310Z,69.37
2023-04-28T23:36:21.249Z,68.36
2023-04-28T23:38:48.071Z,67.16
2023-04-28T23:41:14.925Z,66.61
2023-04-28T23:43:41.504Z,66.26
2023-04-28T23:46:08.383Z,66.42
2023-04-28T23:48:34.956Z,66.26
2023-04-28T23:51:01.513Z,65.85
2023-04-28T23:53:29.444Z,65.74
2023-04-28T23:55:56.060Z,65.69
2023-04-28T23:58:22.774Z,65.97
